Sovereign — 9HUE9 — position and weather

sailwx.info

Track history (hours):
 
Tides and Currents Weather Stations Pressure Air Temp Water Temp Dewpoint Dewpoint Depression Visibility Wind Speed Wind Dir Waves Ship Positions

Sovereign

Last reported at 2016-Nov-24 14:33 UTC. Time now 2016-Dec-03 13:43 UTC.
Position N 28°43' W 015°41'.
Warning: this ship's position is 8 days out of date.

Length 268 m; draft 7.8 m.

Type: Passenger vessel. MMSI: 249539000.

Date/timePositionNaut miles runAvg speedWind from/ knotsBaromVisibWave heightAir tempDewpointWater temp
2016-Nov-24 14:33N 28°43' W 015°41'1717.4
2016-Nov-24 13:33N 28°59' W 015°32'61716.7
2016-Nov-23 00:32N 38°05' W 009°46'1716.9
2016-Nov-22 23:33N 38°19' W 009°36'1717.0
2016-Nov-22 22:33N 38°34' W 009°26'17 8.1
2016-Nov-22 20:28N 38°43' W 009°07'0 0.0
2016-Nov-22 19:28N 38°43' W 009°07'0 0.0
2016-Nov-22 17:28N 38°43' W 009°07'0 0.0
2016-Nov-22 16:28N 38°43' W 009°07'0 0.0
2016-Nov-22 15:28N 38°43' W 009°07'0 0.0
2016-Nov-22 14:28N 38°43' W 009°07'5 4.5
2016-Nov-22 13:27N 38°41' W 009°13'3913.3
2016-Nov-22 10:33N 38°04' W 009°25'1515.3
2016-Nov-22 09:33N 37°48' W 009°24'1515.3
2016-Nov-22 08:33N 37°33' W 009°24'21314.2
2016-Nov-21 17:33N 36°00' W 005°25'14416.0
2016-Nov-21 08:33N 36°24' W 002°29'18115.8
2016-Nov-20 21:07N 37°57' E 000°46'7215.8
2016-Nov-20 16:33N 38°41' E 001°59'3316.4
2016-Nov-20 14:33N 39°09' E 002°21'1615.9
2016-Nov-20 13:33N 39°22' E 002°31'1211.8
2016-Nov-20 12:31N 39°33' E 002°38'0 0.0
2016-Nov-20 09:31N 39°33' E 002°38'0 0.0
2016-Nov-20 08:31N 39°33' E 002°38'0 0.0
2016-Nov-20 07:31N 39°33' E 002°38'0 0.0
2016-Nov-20 06:31N 39°33' E 002°38'0 0.1
2016-Nov-20 05:33N 39°33' E 002°38'8 7.6
2016-Nov-20 04:33N 39°26' E 002°36'1515.1
2016-Nov-20 03:33N 39°31' E 002°18'2512.4
2016-Nov-20 01:33N 39°55' E 002°12'2211.1
2016-Nov-19 23:34N 40°18' E 002°12'1211.6
2016-Nov-19 22:33N 40°29' E 002°12'2311.7
2016-Nov-19 20:33N 40°53' E 002°11'1111.4
2016-Nov-19 19:33N 41°04' E 002°11'16 1.4
2016-Nov-19 07:33N 41°20' E 002°10'2311.6
2016-Nov-19 05:33N 41°20' E 002°41'2315.9
2016-Nov-19 04:07N 41°32' E 003°07'15614.8
2016-Nov-18 17:33N 43°06' E 005°55'1 0.2
2016-Nov-18 14:32N 43°06' E 005°54'0 0.0
2016-Nov-18 12:32N 43°06' E 005°54'0 0.0
2016-Nov-18 11:32N 43°06' E 005°54'0 0.0
2016-Nov-18 09:32N 43°06' E 005°54'0 0.0
2016-Nov-18 07:32N 43°06' E 005°54'  
Track history (hours):
 
Tides and Currents Weather Stations Pressure Air Temp Water Temp Dewpoint Dewpoint Depression Visibility Wind Speed Wind Dir Waves Ship Positions

Sovereign

Last reported at 2016-Nov-24 14:33 UTC. Time now 2016-Dec-03 13:43 UTC.
Position N 28°43' W 015°41'.
Warning: this ship's position is 8 days out of date.

Length 268 m; draft 7.8 m.

Type: Passenger vessel. MMSI: 249539000.

Date/timePositionNaut miles runAvg speedWind from/ knotsBaromVisibWave heightAir tempDewpointWater temp
2016-Nov-24 14:33N 28°43' W 015°41'1717.4
2016-Nov-24 13:33N 28°59' W 015°32'61716.7
2016-Nov-23 00:32N 38°05' W 009°46'1716.9
2016-Nov-22 23:33N 38°19' W 009°36'1717.0
2016-Nov-22 22:33N 38°34' W 009°26'17 8.1
2016-Nov-22 20:28N 38°43' W 009°07'0 0.0
2016-Nov-22 19:28N 38°43' W 009°07'0 0.0
2016-Nov-22 17:28N 38°43' W 009°07'0 0.0
2016-Nov-22 16:28N 38°43' W 009°07'0 0.0
2016-Nov-22 15:28N 38°43' W 009°07'0 0.0
2016-Nov-22 14:28N 38°43' W 009°07'5 4.5
2016-Nov-22 13:27N 38°41' W 009°13'3913.3
2016-Nov-22 10:33N 38°04' W 009°25'1515.3
2016-Nov-22 09:33N 37°48' W 009°24'1515.3
2016-Nov-22 08:33N 37°33' W 009°24'21314.2
2016-Nov-21 17:33N 36°00' W 005°25'14416.0
2016-Nov-21 08:33N 36°24' W 002°29'18115.8
2016-Nov-20 21:07N 37°57' E 000°46'7215.8
2016-Nov-20 16:33N 38°41' E 001°59'3316.4
2016-Nov-20 14:33N 39°09' E 002°21'1615.9
2016-Nov-20 13:33N 39°22' E 002°31'1211.8
2016-Nov-20 12:31N 39°33' E 002°38'0 0.0
2016-Nov-20 09:31N 39°33' E 002°38'0 0.0
2016-Nov-20 08:31N 39°33' E 002°38'0 0.0
2016-Nov-20 07:31N 39°33' E 002°38'0 0.0
2016-Nov-20 06:31N 39°33' E 002°38'0 0.1
2016-Nov-20 05:33N 39°33' E 002°38'8 7.6
2016-Nov-20 04:33N 39°26' E 002°36'1515.1
2016-Nov-20 03:33N 39°31' E 002°18'2512.4
2016-Nov-20 01:33N 39°55' E 002°12'2211.1
2016-Nov-19 23:34N 40°18' E 002°12'1211.6
2016-Nov-19 22:33N 40°29' E 002°12'2311.7
2016-Nov-19 20:33N 40°53' E 002°11'1111.4
2016-Nov-19 19:33N 41°04' E 002°11'16 1.4
2016-Nov-19 07:33N 41°20' E 002°10'2311.6
2016-Nov-19 05:33N 41°20' E 002°41'2315.9
2016-Nov-19 04:07N 41°32' E 003°07'15614.8
2016-Nov-18 17:33N 43°06' E 005°55'1 0.2
2016-Nov-18 14:32N 43°06' E 005°54'0 0.0
2016-Nov-18 12:32N 43°06' E 005°54'0 0.0
2016-Nov-18 11:32N 43°06' E 005°54'0 0.0
2016-Nov-18 09:32N 43°06' E 005°54'0 0.0
2016-Nov-18 07:32N 43°06' E 005°54'  

Dump ship's entire track history